sensor_id;sensor_type;location;lat;lon;timestamp;temperature;humidity
8643;DHT22;4359;49.358;11.256;2024-02-23T00:00:11;7.90;99.90
8643;DHT22;4359;49.358;11.256;2024-02-23T00:02:37;7.90;99.90
8643;DHT22;4359;49.358;11.256;2024-02-23T00:05:04;7.90;99.90
8643;DHT22;4359;49.358;11.256;2024-02-23T00:07:30;7.90;99.90
8643;DHT22;4359;49.358;11.256;2024-02-23T00:09:55;7.90;99.90
8643;DHT22;4359;49.358;11.256;2024-02-23T00:12:21;7.90;99.90
8643;DHT22;4359;49.358;11.256;2024-02-23T00:14:46;7.90;99.90
8643;DHT22;4359;49.358;11.256;2024-02-23T00:17:12;7.80;99.90
8643;DHT22;4359;49.358;11.256;2024-02-23T00:19:38;7.80;99.90
8643;DHT22;4359;49.358;11.256;2024-02-23T00:22:03;7.80;99.90
8643;DHT22;4359;49.358;11.256;2024-02-23T00:24:29;7.80;99.90
8643;DHT22;4359;49.358;11.256;2024-02-23T00:26:55;7.80;99.90
8643;DHT22;4359;49.358;11.256;2024-02-23T00:29:21;7.70;99.90
8643;DHT22;4359;49.358;11.256;2024-02-23T00:31:47;7.70;99.90
8643;DHT22;4359;49.358;11.256;2024-02-23T00:34:13;7.70;99.90
8643;DHT22;4359;49.358;11.256;2024-02-23T00:36:40;7.60;99.90
8643;DHT22;4359;49.358;11.256;2024-02-23T00:39:06;7.60;99.90
8643;DHT22;4359;49.358;11.256;2024-02-23T00:41:33;7.50;99.90
8643;DHT22;4359;49.358;11.256;2024-02-23T00:43:59;7.50;99.90
8643;DHT22;4359;49.358;11.256;2024-02-23T00:46:25;7.30;99.90
8643;DHT22;4359;49.358;11.256;2024-02-23T00:48:51;7.30;99.90
8643;DHT22;4359;49.358;11.256;2024-02-23T00:51:16;7.30;99.90
8643;DHT22;4359;49.358;11.256;2024-02-23T00:53:42;7.30;99.90
8643;DHT22;4359;49.358;11.256;2024-02-23T00:56:08;7.20;99.90
8643;DHT22;4359;49.358;11.256;2024-02-23T00:58:33;7.20;99.90
8643;DHT22;4359;49.358;11.256;2024-02-23T01:00:59;7.20;99.90
8643;DHT22;4359;49.358;11.256;2024-02-23T01:03:25;7.10;99.90
8643;DHT22;4359;49.358;11.256;2024-02-23T01:05:51;7.10;99.90
8643;DHT22;4359;49.358;11.256;2024-02-23T01:08:16;7.00;99.90
8643;DHT22;4359;49.358;11.256;2024-02-23T01:10:42;7.00;99.90
8643;DHT22;4359;49.358;11.256;2024-02-23T01:13:08;7.00;99.90
8643;DHT22;4359;49.358;11.256;2024-02-23T01:15:33;6.90;99.90
8643;DHT22;4359;49.358;11.256;2024-02-23T01:17:59;6.80;99.90
8643;DHT22;4359;49.358;11.256;2024-02-23T01:20:25;6.70;99.90
8643;DHT22;4359;49.358;11.256;2024-02-23T01:22:51;6.70;99.90
8643;DHT22;4359;49.358;11.256;2024-02-23T01:25:16;6.70;99.90
8643;DHT22;4359;49.358;11.256;2024-02-23T01:27:42;6.60;99.90
8643;DHT22;4359;49.358;11.256;2024-02-23T01:30:10;6.50;99.90
8643;DHT22;4359;49.358;11.256;2024-02-23T01:32:35;6.50;99.90
8643;DHT22;4359;49.358;11.256;2024-02-23T01:35:04;6.50;99.90
8643;DHT22;4359;49.358;11.256;2024-02-23T01:37:29;6.30;99.90
8643;DHT22;4359;49.358;11.256;2024-02-23T01:39:55;6.30;99.90
8643;DHT22;4359;49.358;11.256;2024-02-23T01:42:21;6.30;99.90
8643;DHT22;4359;49.358;11.256;2024-02-23T01:44:46;6.30;99.90
8643;DHT22;4359;49.358;11.256;2024-02-23T01:47:12;6.20;99.90
8643;DHT22;4359;49.358;11.256;2024-02-23T01:49:38;6.20;99.90
8643;DHT22;4359;49.358;11.256;2024-02-23T01:52:04;6.20;99.90
8643;DHT22;4359;49.358;11.256;2024-02-23T01:54:31;6.10;99.90
8643;DHT22;4359;49.358;11.256;2024-02-23T01:56:58;6.10;99.90
8643;DHT22;4359;49.358;11.256;2024-02-23T01:59:25;6.10;99.90
8643;DHT22;4359;49.358;11.256;2024-02-23T02:01:51;5.90;99.90
8643;DHT22;4359;49.358;11.256;2024-02-23T02:04:17;5.80;99.90
8643;DHT22;4359;49.358;11.256;2024-02-23T02:06:45;5.80;99.90
8643;DHT22;4359;49.358;11.256;2024-02-23T02:09:10;5.80;99.90
8643;DHT22;4359;49.358;11.256;2024-02-23T02:11:45;5.70;99.90
8643;DHT22;4359;49.358;11.256;2024-02-23T02:14:11;5.70;99.90
8643;DHT22;4359;49.358;11.256;2024-02-23T02:16:37;5.70;99.90
8643;DHT22;4359;49.358;11.256;2024-02-23T02:19:02;5.70;99.90
8643;DHT22;4359;49.358;11.256;2024-02-23T02:21:28;5.60;99.90
8643;DHT22;4359;49.358;11.256;2024-02-23T02:23:54;5.60;99.90
8643;DHT22;4359;49.358;11.256;2024-02-23T02:26:19;5.40;99.90
8643;DHT22;4359;49.358;11.256;2024-02-23T02:28:45;5.50;99.90
8643;DHT22;4359;49.358;11.256;2024-02-23T02:31:11;5.50;99.90
8643;DHT22;4359;49.358;11.256;2024-02-23T02:33:37;5.50;99.90
8643;DHT22;4359;49.358;11.256;2024-02-23T02:36:03;5.50;99.90
8643;DHT22;4359;49.358;11.256;2024-02-23T02:38:28;5.50;99.90
8643;DHT22;4359;49.358;11.256;2024-02-23T02:40:54;5.50;99.90
8643;DHT22;4359;49.358;11.256;2024-02-23T02:43:20;5.40;99.90
8643;DHT22;4359;49.358;11.256;2024-02-23T02:45:45;5.40;99.90
8643;DHT22;4359;49.358;11.256;2024-02-23T02:48:11;5.30;99.90
8643;DHT22;4359;49.358;11.256;2024-02-23T02:50:37;5.40;99.90
8643;DHT22;4359;49.358;11.256;2024-02-23T02:53:03;5.50;99.90
8643;DHT22;4359;49.358;11.256;2024-02-23T02:55:28;5.40;99.90
8643;DHT22;4359;49.358;11.256;2024-02-23T02:57:54;5.50;99.90
8643;DHT22;4359;49.358;11.256;2024-02-23T03:00:20;5.50;99.90
8643;DHT22;4359;49.358;11.256;2024-02-23T03:02:45;5.50;99.90
8643;DHT22;4359;49.358;11.256;2024-02-23T03:05:11;5.40;99.90
8643;DHT22;4359;49.358;11.256;2024-02-23T03:07:36;5.40;99.90
8643;DHT22;4359;49.358;11.256;2024-02-23T03:10:02;5.40;99.90
8643;DHT22;4359;49.358;11.256;2024-02-23T03:12:28;5.30;99.90
8643;DHT22;4359;49.358;11.256;2024-02-23T03:14:53;5.30;99.90
8643;DHT22;4359;49.358;11.256;2024-02-23T03:17:21;5.30;99.90
8643;DHT22;4359;49.358;11.256;2024-02-23T03:19:46;5.30;99.90
8643;DHT22;4359;49.358;11.256;2024-02-23T03:22:12;5.30;99.90
8643;DHT22;4359;49.358;11.256;2024-02-23T03:24:38;5.30;99.90
8643;DHT22;4359;49.358;11.256;2024-02-23T03:27:03;5.30;99.90
8643;DHT22;4359;49.358;11.256;2024-02-23T03:29:29;5.30;99.90
8643;DHT22;4359;49.358;11.256;2024-02-23T03:31:55;5.30;99.90
8643;DHT22;4359;49.358;11.256;2024-02-23T03:34:21;5.30;99.90
8643;DHT22;4359;49.358;11.256;2024-02-23T03:36:47;5.30;99.90
8643;DHT22;4359;49.358;11.256;2024-02-23T03:39:13;5.30;99.90
8643;DHT22;4359;49.358;11.256;2024-02-23T03:41:39;5.30;99.90
8643;DHT22;4359;49.358;11.256;2024-02-23T03:44:04;5.20;99.90
8643;DHT22;4359;49.358;11.256;2024-02-23T03:46:30;5.10;99.90
8643;DHT22;4359;49.358;11.256;2024-02-23T03:48:56;5.10;99.90
8643;DHT22;4359;49.358;11.256;2024-02-23T03:51:22;5.00;99.90
8643;DHT22;4359;49.358;11.256;2024-02-23T03:53:47;5.00;99.90
8643;DHT22;4359;49.358;11.256;2024-02-23T03:56:13;5.00;99.90
8643;DHT22;4359;49.358;11.256;2024-02-23T03:58:39;4.90;99.90
8643;DHT22;4359;49.358;11.256;2024-02-23T04:01:04;5.00;99.90
8643;DHT22;4359;49.358;11.256;2024-02-23T04:03:30;5.00;99.90
8643;DHT22;4359;49.358;11.256;2024-02-23T04:05:55;5.00;99.90
8643;DHT22;4359;49.358;11.256;2024-02-23T04:08:21;4.90;99.90
8643;DHT22;4359;49.358;11.256;2024-02-23T04:10:46;4.90;99.90
8643;DHT22;4359;49.358;11.256;2024-02-23T04:13:12;4.80;99.90
8643;DHT22;4359;49.358;11.256;2024-02-23T04:15:43;4.80;99.90
8643;DHT22;4359;49.358;11.256;2024-02-23T04:18:09;4.70;99.90
8643;DHT22;4359;49.358;11.256;2024-02-23T04:20:35;4.70;99.90
8643;DHT22;4359;49.358;11.256;2024-02-23T04:23:00;4.70;99.90
8643;DHT22;4359;49.358;11.256;2024-02-23T04:25:26;4.60;99.90
8643;DHT22;4359;49.358;11.256;2024-02-23T04:27:52;4.60;99.90
8643;DHT22;4359;49.358;11.256;2024-02-23T04:30:17;4.60;99.90
8643;DHT22;4359;49.358;11.256;2024-02-23T04:32:43;4.60;99.90
8643;DHT22;4359;49.358;11.256;2024-02-23T04:35:09;4.60;99.90
8643;DHT22;4359;49.358;11.256;2024-02-23T04:37:35;4.60;99.90
8643;DHT22;4359;49.358;11.256;2024-02-23T04:40:01;4.70;99.90
8643;DHT22;4359;49.358;11.256;2024-02-23T04:42:26;4.60;99.90
8643;DHT22;4359;49.358;11.256;2024-02-23T04:44:53;4.60;99.90
8643;DHT22;4359;49.358;11.256;2024-02-23T04:47:20;4.60;99.90
8643;DHT22;4359;49.358;11.256;2024-02-23T04:49:46;4.60;99.90
8643;DHT22;4359;49.358;11.256;2024-02-23T04:52:11;4.60;99.90
8643;DHT22;4359;49.358;11.256;2024-02-23T04:54:37;4.70;99.90
8643;DHT22;4359;49.358;11.256;2024-02-23T04:57:03;4.70;99.90
8643;DHT22;4359;49.358;11.256;2024-02-23T04:59:28;4.70;99.90
8643;DHT22;4359;49.358;11.256;2024-02-23T05:01:55;4.70;99.90
8643;DHT22;4359;49.358;11.256;2024-02-23T05:04:21;4.70;99.90
8643;DHT22;4359;49.358;11.256;2024-02-23T05:06:46;4.70;99.90
8643;DHT22;4359;49.358;11.256;2024-02-23T05:09:12;4.60;99.90
8643;DHT22;4359;49.358;11.256;2024-02-23T05:11:38;4.60;99.90
8643;DHT22;4359;49.358;11.256;2024-02-23T05:14:03;4.50;99.90
8643;DHT22;4359;49.358;11.256;2024-02-23T05:16:29;4.40;99.90
8643;DHT22;4359;49.358;11.256;2024-02-23T05:18:54;4.40;99.90
8643;DHT22;4359;49.358;11.256;2024-02-23T05:21:20;4.30;99.90
8643;DHT22;4359;49.358;11.256;2024-02-23T05:23:46;4.20;99.90
8643;DHT22;4359;49.358;11.256;2024-02-23T05:26:14;4.20;99.90
8643;DHT22;4359;49.358;11.256;2024-02-23T05:28:40;4.10;99.90
8643;DHT22;4359;49.358;11.256;2024-02-23T05:31:05;4.10;99.90
8643;DHT22;4359;49.358;11.256;2024-02-23T05:33:31;4.10;99.90
8643;DHT22;4359;49.358;11.256;2024-02-23T05:35:57;4.20;99.90
8643;DHT22;4359;49.358;11.256;2024-02-23T05:38:23;4.10;99.90
8643;DHT22;4359;49.358;11.256;2024-02-23T05:40:48;4.10;99.90
8643;DHT22;4359;49.358;11.256;2024-02-23T05:43:14;4.10;99.90
8643;DHT22;4359;49.358;11.256;2024-02-23T05:45:40;4.10;99.90
8643;DHT22;4359;49.358;11.256;2024-02-23T05:48:06;4.10;99.90
8643;DHT22;4359;49.358;11.256;2024-02-23T05:50:32;4.10;99.90
8643;DHT22;4359;49.358;11.256;2024-02-23T05:52:57;4.10;99.90
8643;DHT22;4359;49.358;11.256;2024-02-23T05:55:23;4.20;99.90
8643;DHT22;4359;49.358;11.256;2024-02-23T05:57:49;4.20;99.90
8643;DHT22;4359;49.358;11.256;2024-02-23T06:00:16;4.10;99.90
8643;DHT22;4359;49.358;11.256;2024-02-23T06:02:44;4.00;99.90
8643;DHT22;4359;49.358;11.256;2024-02-23T06:05:12;4.00;99.90
8643;DHT22;4359;49.358;11.256;2024-02-23T06:07:38;4.00;99.90
8643;DHT22;4359;49.358;11.256;2024-02-23T06:10:03;3.90;99.90
8643;DHT22;4359;49.358;11.256;2024-02-23T06:12:29;3.90;99.90
8643;DHT22;4359;49.358;11.256;2024-02-23T06:14:55;3.90;99.90
8643;DHT22;4359;49.358;11.256;2024-02-23T06:17:24;3.80;99.90
8643;DHT22;4359;49.358;11.256;2024-02-23T06:19:49;3.80;99.90
8643;DHT22;4359;49.358;11.256;2024-02-23T06:22:16;3.80;99.90
8643;DHT22;4359;49.358;11.256;2024-02-23T06:24:46;3.80;99.90
8643;DHT22;4359;49.358;11.256;2024-02-23T06:27:12;3.90;99.90
8643;DHT22;4359;49.358;11.256;2024-02-23T06:29:38;3.80;99.90
8643;DHT22;4359;49.358;11.256;2024-02-23T06:32:04;3.90;99.90
8643;DHT22;4359;49.358;11.256;2024-02-23T06:34:29;3.90;99.90
8643;DHT22;4359;49.358;11.256;2024-02-23T06:36:55;3.80;99.90
8643;DHT22;4359;49.358;11.256;2024-02-23T06:39:21;3.80;99.90
8643;DHT22;4359;49.358;11.256;2024-02-23T06:41:46;3.80;99.90
8643;DHT22;4359;49.358;11.256;2024-02-23T06:44:12;3.80;99.90
8643;DHT22;4359;49.358;11.256;2024-02-23T06:46:38;3.70;99.90
8643;DHT22;4359;49.358;11.256;2024-02-23T06:49:03;3.80;99.90
8643;DHT22;4359;49.358;11.256;2024-02-23T06:51:31;3.80;99.90
8643;DHT22;4359;49.358;11.256;2024-02-23T06:53:57;3.80;99.90
8643;DHT22;4359;49.358;11.256;2024-02-23T06:56:22;3.80;99.90
8643;DHT22;4359;49.358;11.256;2024-02-23T06:58:48;3.80;99.90
8643;DHT22;4359;49.358;11.256;2024-02-23T07:01:13;3.80;99.90
8643;DHT22;4359;49.358;11.256;2024-02-23T07:03:39;3.80;99.90
8643;DHT22;4359;49.358;11.256;2024-02-23T07:06:06;3.80;99.90
8643;DHT22;4359;49.358;11.256;2024-02-23T07:08:32;3.90;99.90
8643;DHT22;4359;49.358;11.256;2024-02-23T07:10:57;3.90;99.90
8643;DHT22;4359;49.358;11.256;2024-02-23T07:13:23;3.90;99.90
8643;DHT22;4359;49.358;11.256;2024-02-23T07:15:49;4.00;99.90
8643;DHT22;4359;49.358;11.256;2024-02-23T07:18:14;4.00;99.90
8643;DHT22;4359;49.358;11.256;2024-02-23T07:20:41;4.10;99.90
8643;DHT22;4359;49.358;11.256;2024-02-23T07:23:06;4.10;99.90
8643;DHT22;4359;49.358;11.256;2024-02-23T07:25:33;4.20;99.90
8643;DHT22;4359;49.358;11.256;2024-02-23T07:27:58;4.20;99.90
8643;DHT22;4359;49.358;11.256;2024-02-23T07:30:24;4.30;99.90
8643;DHT22;4359;49.358;11.256;2024-02-23T07:32:49;4.40;99.90
8643;DHT22;4359;49.358;11.256;2024-02-23T07:35:15;4.50;99.90
8643;DHT22;4359;49.358;11.256;2024-02-23T07:37:41;4.60;99.90
8643;DHT22;4359;49.358;11.256;2024-02-23T07:40:07;4.60;99.90
8643;DHT22;4359;49.358;11.256;2024-02-23T07:42:33;4.60;99.90
8643;DHT22;4359;49.358;11.256;2024-02-23T07:45:02;4.60;99.90
8643;DHT22;4359;49.358;11.256;2024-02-23T07:47:30;4.70;99.90
8643;DHT22;4359;49.358;11.256;2024-02-23T07:49:56;4.70;99.90
8643;DHT22;4359;49.358;11.256;2024-02-23T07:52:21;4.70;99.90
8643;DHT22;4359;49.358;11.256;2024-02-23T07:54:50;4.80;99.90
8643;DHT22;4359;49.358;11.256;2024-02-23T07:57:18;4.70;99.90
8643;DHT22;4359;49.358;11.256;2024-02-23T07:59:43;4.70;99.90
8643;DHT22;4359;49.358;11.256;2024-02-23T08:02:09;4.70;99.90
8643;DHT22;4359;49.358;11.256;2024-02-23T08:04:34;4.70;99.90
8643;DHT22;4359;49.358;11.256;2024-02-23T08:07:00;4.80;99.90
8643;DHT22;4359;49.358;11.256;2024-02-23T08:09:26;4.80;99.90
8643;DHT22;4359;49.358;11.256;2024-02-23T08:11:51;4.80;99.90
8643;DHT22;4359;49.358;11.256;2024-02-23T08:14:17;4.80;99.90
8643;DHT22;4359;49.358;11.256;2024-02-23T08:16:42;4.90;99.90
8643;DHT22;4359;49.358;11.256;2024-02-23T08:19:08;5.00;99.90
8643;DHT22;4359;49.358;11.256;2024-02-23T08:21:33;5.10;99.90
8643;DHT22;4359;49.358;11.256;2024-02-23T08:23:59;5.20;99.90
8643;DHT22;4359;49.358;11.256;2024-02-23T08:26:25;5.30;99.90
8643;DHT22;4359;49.358;11.256;2024-02-23T08:28:50;5.40;99.90
8643;DHT22;4359;49.358;11.256;2024-02-23T08:31:16;5.50;99.90
8643;DHT22;4359;49.358;11.256;2024-02-23T08:33:42;5.50;99.90
8643;DHT22;4359;49.358;11.256;2024-02-23T08:36:07;5.70;99.90
8643;DHT22;4359;49.358;11.256;2024-02-23T08:38:33;5.80;99.90
8643;DHT22;4359;49.358;11.256;2024-02-23T08:40:59;5.80;99.90
8643;DHT22;4359;49.358;11.256;2024-02-23T08:43:24;5.80;99.90
8643;DHT22;4359;49.358;11.256;2024-02-23T08:45:50;5.80;99.90
8643;DHT22;4359;49.358;11.256;2024-02-23T08:48:16;5.80;99.90
8643;DHT22;4359;49.358;11.256;2024-02-23T08:50:43;5.90;99.90
8643;DHT22;4359;49.358;11.256;2024-02-23T08:53:09;6.10;99.90
8643;DHT22;4359;49.358;11.256;2024-02-23T08:55:34;6.30;99.90
8643;DHT22;4359;49.358;11.256;2024-02-23T08:58:00;6.40;99.90
8643;DHT22;4359;49.358;11.256;2024-02-23T09:00:25;6.60;99.90
8643;DHT22;4359;49.358;11.256;2024-02-23T09:02:51;6.70;99.90
8643;DHT22;4359;49.358;11.256;2024-02-23T09:05:17;6.70;99.90
8643;DHT22;4359;49.358;11.256;2024-02-23T09:07:43;6.80;99.90
8643;DHT22;4359;49.358;11.256;2024-02-23T09:10:09;6.70;99.90
8643;DHT22;4359;49.358;11.256;2024-02-23T09:12:34;6.70;99.90
8643;DHT22;4359;49.358;11.256;2024-02-23T09:15:00;6.60;99.90
8643;DHT22;4359;49.358;11.256;2024-02-23T09:17:26;6.60;99.90
8643;DHT22;4359;49.358;11.256;2024-02-23T09:19:51;6.50;99.90
8643;DHT22;4359;49.358;11.256;2024-02-23T09:22:17;6.60;99.90
8643;DHT22;4359;49.358;11.256;2024-02-23T09:24:43;6.60;99.90
8643;DHT22;4359;49.358;11.256;2024-02-23T09:27:08;6.50;99.90
8643;DHT22;4359;49.358;11.256;2024-02-23T09:29:34;6.50;99.90
8643;DHT22;4359;49.358;11.256;2024-02-23T09:32:00;6.50;99.90
8643;DHT22;4359;49.358;11.256;2024-02-23T09:34:26;6.50;99.90
8643;DHT22;4359;49.358;11.256;2024-02-23T09:36:52;6.50;99.90
8643;DHT22;4359;49.358;11.256;2024-02-23T09:39:18;6.50;99.90
8643;DHT22;4359;49.358;11.256;2024-02-23T09:41:44;6.50;99.90
8643;DHT22;4359;49.358;11.256;2024-02-23T09:44:09;6.60;99.90
8643;DHT22;4359;49.358;11.256;2024-02-23T09:46:40;6.60;99.90
8643;DHT22;4359;49.358;11.256;2024-02-23T09:49:07;6.70;99.90
8643;DHT22;4359;49.358;11.256;2024-02-23T09:51:34;6.60;99.90
8643;DHT22;4359;49.358;11.256;2024-02-23T09:54:01;6.70;99.90
8643;DHT22;4359;49.358;11.256;2024-02-23T09:56:28;6.80;99.90
8643;DHT22;4359;49.358;11.256;2024-02-23T09:59:01;6.80;99.90
8643;DHT22;4359;49.358;11.256;2024-02-23T10:01:29;6.80;99.90
8643;DHT22;4359;49.358;11.256;2024-02-23T10:03:57;6.70;99.90
8643;DHT22;4359;49.358;11.256;2024-02-23T10:06:26;6.80;99.90
8643;DHT22;4359;49.358;11.256;2024-02-23T10:08:53;6.80;99.90
8643;DHT22;4359;49.358;11.256;2024-02-23T10:11:23;6.80;99.90
8643;DHT22;4359;49.358;11.256;2024-02-23T10:13:49;6.70;99.90
8643;DHT22;4359;49.358;11.256;2024-02-23T10:16:19;6.70;99.90
8643;DHT22;4359;49.358;11.256;2024-02-23T10:18:46;6.80;99.90
8643;DHT22;4359;49.358;11.256;2024-02-23T10:21:14;6.80;99.90
8643;DHT22;4359;49.358;11.256;2024-02-23T10:23:40;6.70;99.90
8643;DHT22;4359;49.358;11.256;2024-02-23T10:26:07;6.70;99.90
8643;DHT22;4359;49.358;11.256;2024-02-23T10:28:34;6.80;99.90
8643;DHT22;4359;49.358;11.256;2024-02-23T10:31:00;6.70;99.90
8643;DHT22;4359;49.358;11.256;2024-02-23T10:33:27;6.70;99.90
8643;DHT22;4359;49.358;11.256;2024-02-23T10:35:56;6.70;99.90
8643;DHT22;4359;49.358;11.256;2024-02-23T10:38:24;6.70;99.90
8643;DHT22;4359;49.358;11.256;2024-02-23T10:40:57;6.70;99.90
8643;DHT22;4359;49.358;11.256;2024-02-23T10:43:41;6.70;99.90
8643;DHT22;4359;49.358;11.256;2024-02-23T10:46:09;6.80;99.90
8643;DHT22;4359;49.358;11.256;2024-02-23T10:48:42;6.80;99.90
8643;DHT22;4359;49.358;11.256;2024-02-23T10:51:10;6.80;99.90
8643;DHT22;4359;49.358;11.256;2024-02-23T10:53:39;6.70;99.90
8643;DHT22;4359;49.358;11.256;2024-02-23T10:56:07;6.80;99.90
8643;DHT22;4359;49.358;11.256;2024-02-23T10:58:33;6.90;99.90
8643;DHT22;4359;49.358;11.256;2024-02-23T11:01:04;6.90;99.90
8643;DHT22;4359;49.358;11.256;2024-02-23T11:03:32;6.90;99.90
8643;DHT22;4359;49.358;11.256;2024-02-23T11:05:59;7.00;99.90
8643;DHT22;4359;49.358;11.256;2024-02-23T11:08:28;7.00;99.90
8643;DHT22;4359;49.358;11.256;2024-02-23T11:10:55;7.00;99.90
8643;DHT22;4359;49.358;11.256;2024-02-23T11:13:40;7.10;99.90
8643;DHT22;4359;49.358;11.256;2024-02-23T11:16:07;7.10;99.90
8643;DHT22;4359;49.358;11.256;2024-02-23T11:18:36;7.10;99.90
8643;DHT22;4359;49.358;11.256;2024-02-23T11:21:03;7.20;99.90
8643;DHT22;4359;49.358;11.256;2024-02-23T11:23:50;7.30;99.90
8643;DHT22;4359;49.358;11.256;2024-02-23T11:26:17;7.30;99.90
8643;DHT22;4359;49.358;11.256;2024-02-23T11:31:19;7.50;99.90
8643;DHT22;4359;49.358;11.256;2024-02-23T11:33:56;7.40;99.90
8643;DHT22;4359;49.358;11.256;2024-02-23T11:38:55;7.40;99.90
8643;DHT22;4359;49.358;11.256;2024-02-23T11:41:22;7.60;99.90
8643;DHT22;4359;49.358;11.256;2024-02-23T11:43:51;7.60;99.90
8643;DHT22;4359;49.358;11.256;2024-02-23T11:46:18;7.80;99.90
8643;DHT22;4359;49.358;11.256;2024-02-23T11:48:45;7.80;99.90
8643;DHT22;4359;49.358;11.256;2024-02-23T11:51:13;7.80;99.90
8643;DHT22;4359;49.358;11.256;2024-02-23T11:53:40;7.60;99.90
8643;DHT22;4359;49.358;11.256;2024-02-23T11:56:06;7.70;99.90
8643;DHT22;4359;49.358;11.256;2024-02-23T11:58:34;7.60;99.90
8643;DHT22;4359;49.358;11.256;2024-02-23T12:01:03;7.70;99.90
8643;DHT22;4359;49.358;11.256;2024-02-23T12:03:29;7.70;99.90
8643;DHT22;4359;49.358;11.256;2024-02-23T12:05:58;7.60;99.90
8643;DHT22;4359;49.358;11.256;2024-02-23T12:08:27;7.70;99.90
8643;DHT22;4359;49.358;11.256;2024-02-23T12:10:55;7.70;99.90
8643;DHT22;4359;49.358;11.256;2024-02-23T12:13:21;7.60;99.90
8643;DHT22;4359;49.358;11.256;2024-02-23T12:15:48;7.60;99.90
8643;DHT22;4359;49.358;11.256;2024-02-23T12:18:14;7.60;99.90
8643;DHT22;4359;49.358;11.256;2024-02-23T12:20:42;7.60;99.90
8643;DHT22;4359;49.358;11.256;2024-02-23T12:23:08;7.40;99.90
8643;DHT22;4359;49.358;11.256;2024-02-23T12:25:35;7.40;99.90
8643;DHT22;4359;49.358;11.256;2024-02-23T12:28:01;7.50;99.90
8643;DHT22;4359;49.358;11.256;2024-02-23T12:30:27;7.50;99.90
8643;DHT22;4359;49.358;11.256;2024-02-23T12:33:05;7.40;99.90
8643;DHT22;4359;49.358;11.256;2024-02-23T12:35:33;7.50;99.90
8643;DHT22;4359;49.358;11.256;2024-02-23T12:37:59;7.50;99.90
8643;DHT22;4359;49.358;11.256;2024-02-23T12:40:25;7.50;99.90
8643;DHT22;4359;49.358;11.256;2024-02-23T12:42:51;7.50;99.90
8643;DHT22;4359;49.358;11.256;2024-02-23T12:45:16;7.40;99.90
8643;DHT22;4359;49.358;11.256;2024-02-23T12:47:42;7.50;99.90
8643;DHT22;4359;49.358;11.256;2024-02-23T12:50:08;7.50;99.90
8643;DHT22;4359;49.358;11.256;2024-02-23T12:52:34;7.50;99.90
8643;DHT22;4359;49.358;11.256;2024-02-23T12:55:00;7.40;99.90
8643;DHT22;4359;49.358;11.256;2024-02-23T12:57:25;7.40;99.90
8643;DHT22;4359;49.358;11.256;2024-02-23T12:59:51;7.40;99.90
8643;DHT22;4359;49.358;11.256;2024-02-23T13:02:17;7.50;99.90
8643;DHT22;4359;49.358;11.256;2024-02-23T13:04:42;7.50;99.90
8643;DHT22;4359;49.358;11.256;2024-02-23T13:07:14;7.50;99.90
8643;DHT22;4359;49.358;11.256;2024-02-23T13:09:40;7.60;99.90
8643;DHT22;4359;49.358;11.256;2024-02-23T13:12:06;7.80;99.90
8643;DHT22;4359;49.358;11.256;2024-02-23T13:14:32;7.70;99.90
8643;DHT22;4359;49.358;11.256;2024-02-23T13:16:57;7.60;99.90
8643;DHT22;4359;49.358;11.256;2024-02-23T13:19:23;7.50;99.90
8643;DHT22;4359;49.358;11.256;2024-02-23T13:21:49;7.60;99.90
8643;DHT22;4359;49.358;11.256;2024-02-23T13:24:15;7.50;99.90
8643;DHT22;4359;49.358;11.256;2024-02-23T13:26:41;7.30;99.90
8643;DHT22;4359;49.358;11.256;2024-02-23T13:29:06;7.30;99.90
8643;DHT22;4359;49.358;11.256;2024-02-23T13:31:32;7.20;99.90
8643;DHT22;4359;49.358;11.256;2024-02-23T13:33:58;7.20;99.90
8643;DHT22;4359;49.358;11.256;2024-02-23T13:36:23;7.20;99.90
8643;DHT22;4359;49.358;11.256;2024-02-23T13:38:49;7.20;99.90
8643;DHT22;4359;49.358;11.256;2024-02-23T13:41:17;7.30;99.90
8643;DHT22;4359;49.358;11.256;2024-02-23T13:43:42;7.40;99.90
8643;DHT22;4359;49.358;11.256;2024-02-23T13:46:08;7.30;99.90
8643;DHT22;4359;49.358;11.256;2024-02-23T13:48:33;7.30;99.90
8643;DHT22;4359;49.358;11.256;2024-02-23T13:50:59;7.40;99.90
8643;DHT22;4359;49.358;11.256;2024-02-23T13:53:29;7.30;99.90
8643;DHT22;4359;49.358;11.256;2024-02-23T13:55:55;7.30;99.90
8643;DHT22;4359;49.358;11.256;2024-02-23T13:58:20;7.40;99.90
8643;DHT22;4359;49.358;11.256;2024-02-23T14:00:46;7.40;99.90
8643;DHT22;4359;49.358;11.256;2024-02-23T14:03:16;7.50;99.90
8643;DHT22;4359;49.358;11.256;2024-02-23T14:05:43;7.50;99.90
8643;DHT22;4359;49.358;11.256;2024-02-23T14:08:10;7.40;99.90
8643;DHT22;4359;49.358;11.256;2024-02-23T14:10:36;7.20;99.90
8643;DHT22;4359;49.358;11.256;2024-02-23T14:13:01;7.30;99.90
8643;DHT22;4359;49.358;11.256;2024-02-23T14:15:27;7.50;99.90
8643;DHT22;4359;49.358;11.256;2024-02-23T14:17:53;7.50;99.90
8643;DHT22;4359;49.358;11.256;2024-02-23T14:20:18;7.50;99.90
8643;DHT22;4359;49.358;11.256;2024-02-23T14:22:44;7.60;99.90
8643;DHT22;4359;49.358;11.256;2024-02-23T14:25:09;7.60;99.90
8643;DHT22;4359;49.358;11.256;2024-02-23T14:27:35;7.60;99.90
8643;DHT22;4359;49.358;11.256;2024-02-23T14:30:01;7.60;99.90
8643;DHT22;4359;49.358;11.256;2024-02-23T14:32:27;7.50;99.90
8643;DHT22;4359;49.358;11.256;2024-02-23T14:34:52;7.50;99.90
8643;DHT22;4359;49.358;11.256;2024-02-23T14:37:18;7.40;99.90
8643;DHT22;4359;49.358;11.256;2024-02-23T14:39:44;7.30;99.90
8643;DHT22;4359;49.358;11.256;2024-02-23T14:42:09;7.30;99.90
8643;DHT22;4359;49.358;11.256;2024-02-23T14:44:35;7.40;99.90
8643;DHT22;4359;49.358;11.256;2024-02-23T14:47:02;7.30;99.90
8643;DHT22;4359;49.358;11.256;2024-02-23T14:49:31;7.10;99.90
8643;DHT22;4359;49.358;11.256;2024-02-23T14:51:56;7.00;99.90
8643;DHT22;4359;49.358;11.256;2024-02-23T14:54:22;7.00;99.90
8643;DHT22;4359;49.358;11.256;2024-02-23T14:56:48;6.90;99.90
8643;DHT22;4359;49.358;11.256;2024-02-23T14:59:13;6.80;99.90
8643;DHT22;4359;49.358;11.256;2024-02-23T15:01:39;6.90;99.90
8643;DHT22;4359;49.358;11.256;2024-02-23T15:04:07;6.80;99.90
8643;DHT22;4359;49.358;11.256;2024-02-23T15:06:33;6.80;99.90
8643;DHT22;4359;49.358;11.256;2024-02-23T15:08:59;6.70;99.90
8643;DHT22;4359;49.358;11.256;2024-02-23T15:11:25;6.70;99.90
8643;DHT22;4359;49.358;11.256;2024-02-23T15:13:50;6.70;99.90
8643;DHT22;4359;49.358;11.256;2024-02-23T15:16:17;6.70;99.90
8643;DHT22;4359;49.358;11.256;2024-02-23T15:18:43;6.70;99.90
8643;DHT22;4359;49.358;11.256;2024-02-23T15:21:09;6.70;99.90
8643;DHT22;4359;49.358;11.256;2024-02-23T15:23:34;6.70;99.90
8643;DHT22;4359;49.358;11.256;2024-02-23T15:26:00;6.60;99.90
8643;DHT22;4359;49.358;11.256;2024-02-23T15:28:26;6.50;99.90
8643;DHT22;4359;49.358;11.256;2024-02-23T15:30:51;6.40;99.90
8643;DHT22;4359;49.358;11.256;2024-02-23T15:33:17;6.40;99.90
8643;DHT22;4359;49.358;11.256;2024-02-23T15:35:43;6.40;99.90
8643;DHT22;4359;49.358;11.256;2024-02-23T15:38:09;6.30;99.90
8643;DHT22;4359;49.358;11.256;2024-02-23T15:40:34;6.30;99.90
8643;DHT22;4359;49.358;11.256;2024-02-23T15:43:00;6.30;99.90
8643;DHT22;4359;49.358;11.256;2024-02-23T15:45:26;6.20;99.90
8643;DHT22;4359;49.358;11.256;2024-02-23T15:47:52;6.20;99.90
8643;DHT22;4359;49.358;11.256;2024-02-23T15:50:18;6.20;99.90
8643;DHT22;4359;49.358;11.256;2024-02-23T15:52:45;6.10;99.90
8643;DHT22;4359;49.358;11.256;2024-02-23T15:55:11;6.00;99.90
8643;DHT22;4359;49.358;11.256;2024-02-23T15:57:38;5.90;99.90
8643;DHT22;4359;49.358;11.256;2024-02-23T16:00:05;5.90;99.90